createdAt,value
2019-05-22T00:01:00.319Z,23.70
2019-05-22T00:03:35.468Z,23.60
2019-05-22T00:06:06.831Z,23.60
2019-05-22T00:08:38.185Z,23.60
2019-05-22T00:11:10.999Z,23.60
2019-05-22T00:13:44.198Z,23.60
2019-05-22T00:16:14.851Z,23.60
2019-05-22T00:18:47.457Z,23.60
2019-05-22T00:21:20.969Z,23.60
2019-05-22T00:23:54.877Z,23.60
2019-05-22T00:26:25.574Z,23.60
2019-05-22T00:28:56.276Z,23.50
2019-05-22T00:31:27.444Z,23.50
2019-05-22T00:34:00.240Z,23.50
2019-05-22T00:36:31.304Z,23.50
2019-05-22T00:39:03.507Z,23.50
2019-05-22T00:41:35.652Z,23.50
2019-05-22T00:44:08.409Z,23.50
2019-05-22T00:46:41.608Z,23.50
2019-05-22T00:49:13.921Z,23.40
2019-05-22T00:52:07.197Z,23.40
2019-05-22T00:54:44.398Z,23.40
2019-05-22T00:57:40.268Z,23.40
2019-05-22T01:00:24.511Z,23.30
2019-05-22T01:02:57.480Z,23.20
2019-05-22T01:05:30.238Z,23.20
2019-05-22T01:08:02.657Z,23.20
2019-05-22T01:10:33.175Z,23.30
2019-05-22T01:13:04.483Z,23.30
2019-05-22T01:15:35.800Z,23.30
2019-05-22T01:18:11.916Z,23.30
2019-05-22T01:20:42.930Z,23.20
2019-05-22T01:23:18.320Z,23.20
2019-05-22T01:25:49.375Z,23.20
2019-05-22T01:28:22.027Z,23.20
2019-05-22T01:30:55.288Z,23.20
2019-05-22T01:33:32.587Z,23.20
2019-05-22T01:36:21.000Z,23.20
2019-05-22T01:38:53.204Z,23.10
2019-05-22T01:41:27.476Z,23.10
2019-05-22T01:44:02.397Z,23.10
2019-05-22T01:46:36.562Z,23.10
2019-05-22T01:49:13.197Z,23.10
2019-05-22T01:51:46.604Z,23.10
2019-05-22T01:54:17.930Z,23.00
2019-05-22T01:56:48.660Z,23.10
2019-05-22T01:59:20.784Z,23.10
2019-05-22T02:01:52.637Z,23.00
2019-05-22T02:04:24.761Z,23.00
2019-05-22T02:06:57.910Z,23.00
2019-05-22T02:09:37.520Z,23.00
2019-05-22T02:12:28.842Z,23.00
2019-05-22T02:15:00.244Z,23.00
2019-05-22T02:17:35.806Z,23.00
2019-05-22T02:20:09.300Z,23.00
2019-05-22T02:22:42.384Z,22.90
2019-05-22T02:25:34.529Z,22.90
2019-05-22T02:28:06.954Z,22.90
2019-05-22T02:30:39.610Z,22.90
2019-05-22T02:33:10.414Z,22.90
2019-05-22T02:35:42.159Z,22.90
2019-05-22T02:38:13.113Z,22.90
2019-05-22T02:40:47.050Z,22.90
2019-05-22T02:43:18.694Z,22.90
2019-05-22T02:45:49.785Z,22.90
2019-05-22T02:48:23.124Z,22.90
2019-05-22T02:50:57.237Z,22.90
2019-05-22T02:53:29.671Z,22.90
2019-05-22T02:56:00.472Z,22.90
2019-05-22T02:58:33.601Z,22.90
2019-05-22T03:01:06.690Z,22.80
2019-05-22T03:03:38.767Z,22.80
2019-05-22T03:06:13.473Z,22.80
2019-05-22T03:09:31.406Z,22.80
2019-05-22T03:12:16.243Z,22.60
2019-05-22T03:14:48.873Z,22.60
2019-05-22T03:17:31.249Z,22.60
2019-05-22T03:20:09.331Z,22.60
2019-05-22T03:23:14.452Z,22.60
2019-05-22T03:25:45.851Z,22.60
2019-05-22T03:28:17.290Z,22.60
2019-05-22T03:30:48.109Z,22.60
2019-05-22T03:33:19.226Z,22.60
2019-05-22T03:35:53.727Z,22.60
2019-05-22T03:38:25.987Z,22.60
2019-05-22T03:40:57.089Z,22.60
2019-05-22T03:43:30.194Z,22.60
2019-05-22T03:46:06.507Z,22.60
2019-05-22T03:48:39.347Z,22.60
2019-05-22T03:51:14.986Z,22.50
2019-05-22T03:53:47.632Z,22.50
2019-05-22T03:56:22.647Z,22.60
2019-05-22T03:58:53.793Z,22.60
2019-05-22T04:01:26.362Z,22.60
2019-05-22T04:03:59.613Z,22.60
2019-05-22T04:06:30.148Z,22.60
2019-05-22T04:09:11.585Z,22.60
2019-05-22T04:11:46.534Z,22.60
2019-05-22T04:14:17.428Z,22.50
2019-05-22T04:16:48.961Z,22.60
2019-05-22T04:19:19.995Z,22.60
2019-05-22T04:21:50.544Z,22.60
2019-05-22T04:24:22.104Z,22.60
2019-05-22T04:26:53.507Z,22.50
2019-05-22T04:29:28.251Z,22.50
2019-05-22T04:32:06.144Z,22.50
2019-05-22T04:34:38.036Z,22.50
2019-05-22T04:37:10.762Z,22.40
2019-05-22T04:39:44.156Z,22.40
2019-05-22T04:42:16.005Z,22.40
2019-05-22T04:45:12.673Z,22.40
2019-05-22T04:47:57.141Z,22.40
2019-05-22T04:50:29.918Z,22.30
2019-05-22T04:53:02.348Z,22.30
2019-05-22T04:55:34.320Z,22.30
2019-05-22T04:58:08.507Z,22.30
2019-05-22T05:00:39.988Z,22.30
2019-05-22T05:03:11.900Z,22.30
2019-05-22T05:05:46.046Z,22.30
2019-05-22T05:08:17.030Z,22.30
2019-05-22T05:10:50.591Z,22.30
2019-05-22T05:13:21.460Z,22.30
2019-05-22T05:15:52.003Z,22.30
2019-05-22T05:18:22.588Z,22.30
2019-05-22T05:20:53.935Z,22.30
2019-05-22T05:23:24.733Z,22.30
2019-05-22T05:25:55.545Z,22.30
2019-05-22T05:28:26.602Z,22.30
2019-05-22T05:30:58.914Z,22.20
2019-05-22T05:33:33.619Z,22.20
2019-05-22T05:36:05.617Z,22.20
2019-05-22T05:38:39.538Z,22.20
2019-05-22T05:41:11.001Z,22.20
2019-05-22T05:43:42.345Z,22.20
2019-05-22T05:46:13.032Z,22.20
2019-05-22T05:48:45.004Z,22.20
2019-05-22T05:51:40.516Z,22.20
2019-05-22T05:54:16.104Z,22.10
2019-05-22T05:56:51.182Z,22.10
2019-05-22T05:59:24.352Z,22.10
2019-05-22T06:01:56.144Z,22.10
2019-05-22T06:04:39.586Z,22.10
2019-05-22T06:07:24.282Z,22.10
2019-05-22T06:11:00.619Z,22.10
2019-05-22T06:13:32.038Z,22.00
2019-05-22T06:17:07.936Z,22.00
2019-05-22T06:19:43.835Z,21.80
2019-05-22T06:22:17.317Z,21.90
2019-05-22T06:25:10.198Z,21.90
2019-05-22T06:27:55.408Z,22.00
2019-05-22T06:30:46.499Z,21.90
2019-05-22T06:33:45.141Z,21.90
2019-05-22T06:36:18.526Z,21.90
2019-05-22T06:39:11.900Z,21.90
2019-05-22T06:41:44.227Z,21.90
2019-05-22T06:44:42.245Z,21.90
2019-05-22T06:47:25.805Z,21.90
2019-05-22T06:50:00.562Z,22.00
2019-05-22T06:52:31.057Z,22.00
2019-05-22T06:55:02.287Z,22.00
2019-05-22T06:57:34.654Z,22.00
2019-05-22T07:00:18.198Z,22.00
2019-05-22T07:02:48.871Z,22.00
2019-05-22T07:05:19.749Z,22.00
2019-05-22T07:07:50.624Z,22.00
2019-05-22T07:10:21.886Z,22.00
2019-05-22T07:12:52.715Z,22.00
2019-05-22T07:15:38.142Z,22.00
2019-05-22T07:18:12.878Z,21.90
2019-05-22T07:20:43.623Z,21.90
2019-05-22T07:23:20.581Z,21.90
2019-05-22T07:25:52.883Z,21.90
2019-05-22T07:28:25.948Z,21.90
2019-05-22T07:30:57.123Z,21.90
2019-05-22T07:33:28.249Z,21.90
2019-05-22T07:36:09.941Z,21.90
2019-05-22T07:38:32.583Z,21.90
2019-05-22T07:41:03.912Z,21.90
2019-05-22T07:43:34.604Z,21.90
2019-05-22T07:46:05.526Z,21.90
2019-05-22T07:48:36.947Z,21.90
2019-05-22T07:51:08.821Z,21.90
2019-05-22T07:53:40.741Z,21.90
2019-05-22T07:56:12.767Z,21.90
2019-05-22T07:58:44.477Z,21.90
2019-05-22T08:01:17.491Z,21.90
2019-05-22T08:03:49.519Z,21.90
2019-05-22T08:06:21.182Z,21.80
2019-05-22T08:08:54.719Z,21.90
2019-05-22T08:11:27.516Z,21.90
2019-05-22T08:14:00.168Z,21.80
2019-05-22T08:16:31.838Z,21.80
2019-05-22T08:19:03.036Z,21.80
2019-05-22T08:21:34.667Z,21.80
2019-05-22T08:24:07.586Z,21.80
2019-05-22T08:26:53.393Z,21.90
2019-05-22T08:29:11.791Z,21.80
2019-05-22T08:31:42.775Z,21.80
2019-05-22T08:34:15.261Z,21.80
2019-05-22T08:36:49.971Z,21.80
2019-05-22T08:39:21.510Z,21.80
2019-05-22T08:41:53.254Z,21.80
2019-05-22T08:44:24.496Z,21.80
2019-05-22T08:46:55.459Z,21.80
2019-05-22T08:49:26.528Z,21.80
2019-05-22T08:51:57.997Z,21.70
2019-05-22T08:54:30.244Z,21.70
2019-05-22T08:57:02.592Z,21.70
2019-05-22T08:59:34.377Z,21.70
2019-05-22T09:02:06.390Z,21.70
2019-05-22T09:04:37.124Z,21.70
2019-05-22T09:07:08.080Z,21.70
2019-05-22T09:09:38.749Z,21.60
2019-05-22T09:12:11.391Z,21.70
2019-05-22T09:14:41.905Z,21.60
2019-05-22T09:17:12.838Z,21.60
2019-05-22T09:19:43.820Z,21.60
2019-05-22T09:22:14.605Z,21.60
2019-05-22T09:24:47.880Z,21.60
2019-05-22T09:27:19.239Z,21.60
2019-05-22T09:29:50.994Z,21.60
2019-05-22T09:32:21.679Z,21.60
2019-05-22T09:34:52.360Z,21.60
2019-05-22T09:37:23.139Z,21.60
2019-05-22T09:39:53.687Z,21.60
2019-05-22T09:42:24.511Z,21.60
2019-05-22T09:44:55.293Z,21.60
2019-05-22T09:47:27.681Z,21.60
2019-05-22T09:49:58.928Z,21.60
2019-05-22T09:52:29.668Z,21.50
2019-05-22T09:55:00.617Z,21.60
2019-05-22T09:57:31.835Z,21.60
2019-05-22T10:00:02.943Z,21.50
2019-05-22T10:02:35.984Z,21.50
2019-05-22T10:05:08.633Z,21.50
2019-05-22T10:07:57.100Z,21.50
2019-05-22T10:10:15.422Z,21.50
2019-05-22T10:12:45.949Z,21.50
2019-05-22T10:15:18.091Z,21.50
2019-05-22T10:17:50.869Z,21.50
2019-05-22T10:20:22.353Z,21.50
2019-05-22T10:22:53.064Z,21.50
2019-05-22T10:25:25.410Z,21.50
2019-05-22T10:27:59.212Z,21.50
2019-05-22T10:30:28.639Z,21.50
2019-05-22T10:33:00.028Z,21.50
2019-05-22T10:35:31.655Z,21.50
2019-05-22T10:38:02.459Z,21.50
2019-05-22T10:40:34.018Z,21.50
2019-05-22T10:43:04.862Z,21.50
2019-05-22T10:45:35.928Z,21.50
2019-05-22T10:48:06.662Z,21.60
2019-05-22T10:50:39.369Z,21.60
2019-05-22T10:53:10.056Z,21.50
2019-05-22T10:55:41.123Z,21.60
2019-05-22T10:58:13.221Z,21.50
2019-05-22T11:00:44.521Z,21.60
2019-05-22T11:03:18.562Z,21.50
2019-05-22T11:06:05.803Z,21.60
2019-05-22T11:08:22.693Z,21.60
2019-05-22T11:10:53.501Z,21.50
2019-05-22T11:13:25.623Z,21.50
2019-05-22T11:15:58.385Z,21.50
2019-05-22T11:18:29.763Z,21.50
2019-05-22T11:21:00.633Z,21.50
2019-05-22T11:23:48.693Z,21.60
2019-05-22T11:26:05.522Z,21.60
2019-05-22T11:28:36.073Z,21.60
2019-05-22T11:31:08.328Z,21.60
2019-05-22T11:33:39.232Z,21.60
2019-05-22T11:36:10.902Z,21.60
2019-05-22T11:38:41.645Z,21.60
2019-05-22T11:41:12.779Z,21.60
2019-05-22T11:43:44.859Z,21.60
2019-05-22T11:46:17.020Z,21.60
2019-05-22T11:48:47.950Z,21.60
2019-05-22T11:51:20.031Z,21.60
2019-05-22T11:54:07.437Z,21.60
2019-05-22T11:56:23.457Z,21.60
2019-05-22T11:58:54.032Z,21.60
2019-05-22T12:01:25.576Z,21.60
2019-05-22T12:03:58.297Z,21.60
2019-05-22T12:06:31.174Z,21.60
2019-05-22T12:09:01.922Z,21.60
2019-05-22T12:11:33.291Z,21.60
2019-05-22T12:14:03.857Z,21.60
2019-05-22T12:16:34.926Z,21.60
2019-05-22T12:19:07.054Z,21.60
2019-05-22T12:21:38.487Z,21.60
2019-05-22T12:24:26.267Z,21.60
2019-05-22T12:26:42.399Z,21.60
2019-05-22T12:29:16.777Z,21.60
2019-05-22T12:31:45.737Z,21.60
2019-05-22T12:34:16.929Z,21.60
2019-05-22T12:36:51.013Z,21.70
2019-05-22T12:39:21.665Z,21.60
2019-05-22T12:41:54.251Z,21.70
2019-05-22T12:44:25.499Z,21.60
2019-05-22T12:46:56.142Z,21.70
2019-05-22T12:49:28.916Z,21.70
2019-05-22T12:52:00.548Z,21.70
2019-05-22T12:54:45.832Z,21.70
2019-05-22T12:57:06.341Z,21.70
2019-05-22T12:59:36.990Z,21.70
2019-05-22T13:02:10.023Z,21.60
2019-05-22T13:04:41.156Z,21.60
2019-05-22T13:07:12.149Z,21.70
2019-05-22T13:09:43.020Z,21.60
2019-05-22T13:12:14.860Z,21.70
2019-05-22T13:14:46.268Z,21.70
2019-05-22T13:17:17.409Z,21.70
2019-05-22T13:19:49.946Z,21.70
2019-05-22T13:22:26.438Z,21.70
2019-05-22T13:24:59.896Z,21.70
2019-05-22T13:27:33.800Z,21.70
2019-05-22T13:30:05.662Z,21.70
2019-05-22T13:32:37.728Z,21.70
2019-05-22T13:35:10.386Z,21.70
2019-05-22T13:37:41.391Z,21.70
2019-05-22T13:40:26.988Z,21.70
2019-05-22T13:42:46.260Z,21.60
2019-05-22T13:45:28.632Z,21.60
2019-05-22T13:47:51.069Z,21.60
2019-05-22T13:50:27.933Z,21.60
2019-05-22T13:52:58.459Z,21.60
2019-05-22T13:55:29.550Z,21.60
2019-05-22T13:58:02.187Z,21.60
2019-05-22T14:00:32.936Z,21.60
2019-05-22T14:03:04.118Z,21.60
2019-05-22T14:05:36.493Z,21.60
2019-05-22T14:08:08.869Z,21.60
2019-05-22T14:10:40.702Z,21.60
2019-05-22T14:13:12.091Z,21.60
2019-05-22T14:15:50.544Z,21.60
2019-05-22T14:18:15.867Z,21.60
2019-05-22T14:20:46.914Z,21.60
2019-05-22T14:23:18.086Z,21.60
2019-05-22T14:25:50.441Z,21.60
2019-05-22T14:28:22.536Z,21.60
2019-05-22T14:30:53.882Z,21.60
2019-05-22T14:33:28.095Z,21.60
2019-05-22T14:35:58.940Z,21.60
2019-05-22T14:38:29.861Z,21.60
2019-05-22T14:41:02.671Z,21.60
2019-05-22T14:43:33.369Z,21.60
2019-05-22T14:46:06.329Z,21.60
2019-05-22T14:48:37.722Z,21.60
2019-05-22T14:51:09.461Z,21.60
2019-05-22T14:53:41.888Z,21.60
2019-05-22T14:56:13.121Z,21.60
2019-05-22T14:58:44.683Z,21.60
2019-05-22T15:01:15.849Z,21.60
2019-05-22T15:03:47.384Z,21.60
2019-05-22T15:06:19.505Z,21.60
2019-05-22T15:08:50.706Z,21.60
2019-05-22T15:11:23.387Z,21.50
2019-05-22T15:13:55.837Z,21.50
2019-05-22T15:16:28.588Z,21.50
2019-05-22T15:18:59.150Z,21.50
2019-05-22T15:21:30.037Z,21.50
2019-05-22T15:24:01.913Z,21.50
2019-05-22T15:26:32.735Z,21.50
2019-05-22T15:29:03.608Z,21.50
2019-05-22T15:31:34.443Z,21.50
2019-05-22T15:34:06.718Z,21.50
2019-05-22T15:36:39.175Z,21.50
2019-05-22T15:39:14.887Z,21.40
2019-05-22T15:41:46.428Z,21.40
2019-05-22T15:44:17.099Z,21.40
2019-05-22T15:46:49.588Z,21.40
2019-05-22T15:49:21.563Z,21.30
2019-05-22T15:51:53.871Z,21.30
2019-05-22T15:54:26.468Z,21.30
2019-05-22T15:57:01.508Z,21.30
2019-05-22T15:59:35.916Z,21.30
2019-05-22T16:02:06.777Z,21.30
2019-05-22T16:04:41.180Z,21.30
2019-05-22T16:07:15.078Z,21.30
2019-05-22T16:09:47.598Z,21.30
2019-05-22T16:12:19.711Z,21.30
2019-05-22T16:14:52.934Z,21.20
2019-05-22T16:17:24.267Z,21.20
2019-05-22T16:19:55.843Z,21.20
2019-05-22T16:22:27.114Z,21.20
2019-05-22T16:24:57.686Z,21.20
2019-05-22T16:27:29.083Z,21.20
2019-05-22T16:30:01.556Z,21.20
2019-05-22T16:32:36.240Z,21.20
2019-05-22T16:35:07.677Z,21.20
2019-05-22T16:37:38.689Z,21.20
2019-05-22T16:40:12.150Z,21.20
2019-05-22T16:42:43.461Z,21.20
2019-05-22T16:45:14.891Z,21.20
2019-05-22T16:47:46.376Z,21.20
2019-05-22T16:50:18.152Z,21.10
2019-05-22T16:52:50.010Z,21.10
2019-05-22T16:55:22.365Z,21.10
2019-05-22T16:57:54.426Z,21.10
2019-05-22T17:00:26.521Z,21.10
2019-05-22T17:02:58.007Z,21.10
2019-05-22T17:05:29.055Z,21.10
2019-05-22T17:08:00.687Z,21.10
2019-05-22T17:10:31.572Z,21.10
2019-05-22T17:13:03.936Z,21.10
2019-05-22T17:15:37.021Z,21.10
2019-05-22T17:18:11.009Z,21.10
2019-05-22T17:20:42.937Z,21.10
2019-05-22T17:23:14.915Z,21.10
2019-05-22T17:25:46.150Z,21.10
2019-05-22T17:28:18.874Z,21.20
2019-05-22T17:30:50.976Z,21.20
2019-05-22T17:33:22.483Z,21.20
2019-05-22T17:35:54.938Z,21.20
2019-05-22T17:38:28.233Z,21.20
2019-05-22T17:41:00.951Z,21.20
2019-05-22T17:43:33.957Z,21.20
2019-05-22T17:46:06.426Z,21.20
2019-05-22T17:48:37.482Z,21.20
2019-05-22T17:51:08.424Z,21.20
2019-05-22T17:53:39.300Z,21.20
2019-05-22T17:56:09.994Z,21.20
2019-05-22T17:58:40.976Z,21.20
2019-05-22T18:01:12.214Z,21.20
2019-05-22T18:03:43.520Z,21.20
2019-05-22T18:06:15.002Z,21.20
2019-05-22T18:08:46.247Z,21.20
2019-05-22T18:11:16.920Z,21.20
2019-05-22T18:14:03.587Z,21.20
2019-05-22T18:16:35.269Z,21.10
2019-05-22T18:19:07.101Z,21.10
2019-05-22T18:21:38.463Z,21.20
2019-05-22T18:24:09.761Z,21.20
2019-05-22T18:26:41.817Z,21.20
2019-05-22T18:29:12.563Z,21.20
2019-05-22T18:31:44.439Z,21.20
2019-05-22T18:34:15.113Z,21.20
2019-05-22T18:36:45.886Z,21.20
2019-05-22T18:39:18.228Z,21.20
2019-05-22T18:41:49.102Z,21.20
2019-05-22T18:44:19.652Z,21.10
2019-05-22T18:46:50.263Z,21.10
2019-05-22T18:49:20.963Z,21.10
2019-05-22T18:51:51.940Z,21.10
2019-05-22T18:54:22.691Z,21.10
2019-05-22T18:56:53.277Z,21.10
2019-05-22T18:59:25.433Z,21.10
2019-05-22T19:01:57.325Z,21.10
2019-05-22T19:04:28.073Z,21.10
2019-05-22T19:06:58.764Z,21.10
2019-05-22T19:09:29.515Z,21.10
2019-05-22T19:12:00.403Z,21.10
2019-05-22T19:14:31.623Z,21.10
2019-05-22T19:17:02.412Z,21.10
2019-05-22T19:19:33.025Z,21.10
2019-05-22T19:22:05.504Z,21.10
2019-05-22T19:24:37.158Z,21.10
2019-05-22T19:27:07.844Z,21.10
2019-05-22T19:29:38.556Z,21.10
2019-05-22T19:32:09.138Z,21.10
2019-05-22T19:34:40.285Z,21.10
2019-05-22T19:37:11.257Z,21.10
2019-05-22T19:39:41.877Z,21.10
2019-05-22T19:42:12.889Z,21.10
2019-05-22T19:44:43.937Z,21.10
2019-05-22T19:47:15.711Z,21.10
2019-05-22T19:49:46.574Z,21.10
2019-05-22T19:52:22.151Z,21.00
2019-05-22T19:54:51.239Z,21.00
2019-05-22T19:57:22.449Z,21.00
2019-05-22T19:59:53.266Z,21.00
2019-05-22T20:02:25.109Z,21.00
2019-05-22T20:04:56.005Z,21.00
2019-05-22T20:07:27.027Z,21.00
2019-05-22T20:09:57.597Z,21.00
2019-05-22T20:12:28.333Z,21.00
2019-05-22T20:14:59.534Z,21.00
2019-05-22T20:17:30.336Z,21.00
2019-05-22T20:20:00.931Z,21.00
2019-05-22T20:22:31.937Z,21.00
2019-05-22T20:25:04.250Z,21.00
2019-05-22T20:27:35.384Z,21.00
2019-05-22T20:30:08.490Z,21.00
2019-05-22T20:32:39.303Z,21.00
2019-05-22T20:35:12.063Z,21.00
2019-05-22T20:37:45.560Z,21.00
2019-05-22T20:40:18.169Z,21.00
2019-05-22T20:42:49.491Z,21.00
2019-05-22T20:45:22.842Z,21.00
2019-05-22T20:48:14.853Z,21.00
2019-05-22T20:50:46.280Z,20.90
2019-05-22T20:53:19.052Z,20.90
2019-05-22T20:55:50.355Z,20.90
2019-05-22T20:58:22.994Z,21.00
2019-05-22T21:00:54.734Z,21.00
2019-05-22T21:03:26.767Z,21.00
2019-05-22T21:06:01.419Z,21.00
2019-05-22T21:08:32.612Z,20.90
2019-05-22T21:11:04.629Z,20.90
2019-05-22T21:13:35.703Z,20.90
2019-05-22T21:16:08.007Z,21.00
2019-05-22T21:18:43.847Z,21.00
2019-05-22T21:21:15.010Z,20.90
2019-05-22T21:23:45.822Z,20.90
2019-05-22T21:26:37.194Z,20.90
2019-05-22T21:29:08.289Z,20.90
2019-05-22T21:31:39.044Z,20.90
2019-05-22T21:34:09.594Z,20.90
2019-05-22T21:36:40.199Z,20.90
2019-05-22T21:39:13.290Z,21.00
2019-05-22T21:41:43.955Z,21.00
2019-05-22T21:44:14.966Z,20.90
2019-05-22T21:46:45.532Z,21.00
2019-05-22T21:49:19.197Z,21.00
2019-05-22T21:51:50.089Z,20.90
2019-05-22T21:54:21.098Z,20.90
2019-05-22T21:56:52.372Z,20.90
2019-05-22T21:59:23.512Z,20.90
2019-05-22T22:02:03.097Z,20.90
2019-05-22T22:04:36.910Z,20.90
2019-05-22T22:07:08.137Z,20.90
2019-05-22T22:09:42.946Z,20.90
2019-05-22T22:12:17.211Z,20.90
2019-05-22T22:14:49.681Z,20.90
2019-05-22T22:17:21.056Z,20.90
2019-05-22T22:19:52.870Z,20.90
2019-05-22T22:22:29.606Z,20.90
2019-05-22T22:25:00.943Z,20.90
2019-05-22T22:27:33.310Z,20.90
2019-05-22T22:30:05.975Z,20.90
2019-05-22T22:32:37.933Z,20.90
2019-05-22T22:35:12.479Z,20.90
2019-05-22T22:37:43.977Z,20.80
2019-05-22T22:40:17.955Z,20.80
2019-05-22T22:42:51.713Z,20.80
2019-05-22T22:45:34.163Z,20.80
2019-05-22T22:48:06.092Z,20.80
2019-05-22T22:50:38.642Z,20.80
2019-05-22T22:53:10.338Z,20.80
2019-05-22T22:55:43.529Z,20.80
2019-05-22T22:58:17.622Z,20.80
2019-05-22T23:00:49.364Z,20.80
2019-05-22T23:03:26.785Z,20.80
2019-05-22T23:05:58.567Z,20.80
2019-05-22T23:08:34.901Z,20.80
2019-05-22T23:11:07.101Z,20.80
2019-05-22T23:13:38.377Z,20.70
2019-05-22T23:16:09.537Z,20.80
2019-05-22T23:19:26.467Z,20.80
2019-05-22T23:21:56.313Z,20.80
2019-05-22T23:24:28.884Z,20.80
2019-05-22T23:27:00.984Z,20.70
2019-05-22T23:29:32.799Z,20.70
2019-05-22T23:32:04.014Z,20.70
2019-05-22T23:34:35.208Z,20.70
2019-05-22T23:37:07.434Z,20.70
2019-05-22T23:39:40.138Z,20.70
2019-05-22T23:42:17.586Z,20.70
2019-05-22T23:44:49.514Z,20.70
2019-05-22T23:47:20.472Z,20.70
2019-05-22T23:49:51.741Z,20.70
2019-05-22T23:52:23.084Z,20.70
2019-05-22T23:54:53.853Z,20.70
2019-05-22T23:57:26.938Z,20.60
